Shin Puropan Maru — JG5508 — position and weather

sailwx.info

Track history (hours):
 
Tides and Currents Weather Stations Pressure Air Temp Water Temp Dewpoint Dewpoint Depression Visibility Wind Speed Wind Dir Waves Ship Positions

Shin Puropan Maru

Last reported at 2014-Oct-01 09:04 UTC. Time now 2014-Oct-02 10:36 UTC.
Position N 34°36' E 134°54'.

Length 66 m; draft 3.6 m.

Type: Ship (hazmat cat A). MMSI: 431100348.

Date/timePositionNaut miles runAvg speedWind from/ knotsBaromVisibWave heightAir tempDewpointWater temp
2014-Oct-01 09:04N 34°36' E 134°54'610.9
2014-Oct-01 08:30N 34°37' E 135°01'1111.4
2014-Oct-01 07:33N 34°36' E 135°14'10 9.6
2014-Oct-01 06:33N 34°34' E 135°26'0 0.0
2014-Oct-01 03:27N 34°34' E 135°26'2 2.5
2014-Oct-01 02:33N 34°34' E 135°23'2 0.5
2014-Sep-30 23:19N 34°34' E 135°25'2 2.9
2014-Sep-30 22:33N 34°35' E 135°23'0 0.1
2014-Sep-30 21:28N 34°35' E 135°23'0 0.0
2014-Sep-30 20:28N 34°35' E 135°23'0 0.0
2014-Sep-30 19:22N 34°35' E 135°23'0 0.0
2014-Sep-30 18:10N 34°35' E 135°23'0 0.0
2014-Sep-30 17:10N 34°35' E 135°23'0 0.0
2014-Sep-30 16:28N 34°35' E 135°23'0 0.0
2014-Sep-30 15:22N 34°35' E 135°23'0 0.0
2014-Sep-30 14:28N 34°35' E 135°23'0 0.0
2014-Sep-30 13:22N 34°35' E 135°23'0 0.0
2014-Sep-30 12:31N 34°35' E 135°23'0 0.1
2014-Sep-30 11:33N 34°35' E 135°23'1211.7
2014-Sep-30 10:33N 34°35' E 135°09'  
2014-Sep-26 09:11N 33°58' E 132°43'11712.1
2014-Sep-25 23:32N 34°37' E 134°56'1313.3
2014-Sep-25 22:34N 34°36' E 135°12'6 4.5
2014-Sep-25 21:17N 34°35' E 135°19'0 0.0
2014-Sep-25 20:23N 34°35' E 135°19'0 0.0
2014-Sep-25 19:29N 34°35' E 135°19'0 0.0
2014-Sep-25 18:29N 34°35' E 135°19'0 0.1
2014-Sep-25 17:29N 34°35' E 135°19'0 0.0
2014-Sep-25 16:17N 34°35' E 135°19'0 0.0
2014-Sep-25 15:29N 34°35' E 135°19'0 0.0
2014-Sep-25 14:17N 34°35' E 135°19'0 0.0
2014-Sep-25 13:29N 34°35' E 135°19'0 0.0
2014-Sep-25 12:29N 34°35' E 135°19'0 0.0
2014-Sep-25 11:29N 34°35' E 135°19'0 0.0
2014-Sep-25 10:29N 34°35' E 135°19'0 0.0
2014-Sep-25 09:23N 34°35' E 135°19'0 0.0
2014-Sep-25 08:23N 34°35' E 135°19'0 0.0
2014-Sep-25 07:29N 34°35' E 135°19'0 0.0
2014-Sep-25 06:29N 34°35' E 135°19'0 0.0
2014-Sep-25 05:29N 34°35' E 135°19'0 0.1
2014-Sep-25 04:33N 34°35' E 135°19'6 5.7
2014-Sep-25 03:33N 34°34' E 135°26'0 0.0
2014-Sep-25 00:27N 34°34' E 135°26'4 4.2
2014-Sep-24 23:33N 34°36' E 135°21'1212.0
2014-Sep-24 22:33N 34°28' E 135°11'4 2.1
2014-Sep-24 20:31N 34°24' E 135°10'0 0.0
2014-Sep-24 19:28N 34°24' E 135°10'0 0.0
2014-Sep-24 18:25N 34°24' E 135°10'0 0.0
2014-Sep-24 17:28N 34°24' E 135°10'0 0.0
2014-Sep-24 15:31N 34°24' E 135°10'0 0.1
2014-Sep-24 14:31N 34°24' E 135°09'0 0.0
2014-Sep-24 13:31N 34°24' E 135°10'7 7.0
2014-Sep-24 12:33N 34°20' E 135°03'1211.7
2014-Sep-24 11:33N 34°08' E 135°00'  
Track history (hours):
 
Tides and Currents Weather Stations Pressure Air Temp Water Temp Dewpoint Dewpoint Depression Visibility Wind Speed Wind Dir Waves Ship Positions

Shin Puropan Maru

Last reported at 2014-Oct-01 09:04 UTC. Time now 2014-Oct-02 10:36 UTC.
Position N 34°36' E 134°54'.

Length 66 m; draft 3.6 m.

Type: Ship (hazmat cat A). MMSI: 431100348.

Date/timePositionNaut miles runAvg speedWind from/ knotsBaromVisibWave heightAir tempDewpointWater temp
2014-Oct-01 09:04N 34°36' E 134°54'610.9
2014-Oct-01 08:30N 34°37' E 135°01'1111.4
2014-Oct-01 07:33N 34°36' E 135°14'10 9.6
2014-Oct-01 06:33N 34°34' E 135°26'0 0.0
2014-Oct-01 03:27N 34°34' E 135°26'2 2.5
2014-Oct-01 02:33N 34°34' E 135°23'2 0.5
2014-Sep-30 23:19N 34°34' E 135°25'2 2.9
2014-Sep-30 22:33N 34°35' E 135°23'0 0.1
2014-Sep-30 21:28N 34°35' E 135°23'0 0.0
2014-Sep-30 20:28N 34°35' E 135°23'0 0.0
2014-Sep-30 19:22N 34°35' E 135°23'0 0.0
2014-Sep-30 18:10N 34°35' E 135°23'0 0.0
2014-Sep-30 17:10N 34°35' E 135°23'0 0.0
2014-Sep-30 16:28N 34°35' E 135°23'0 0.0
2014-Sep-30 15:22N 34°35' E 135°23'0 0.0
2014-Sep-30 14:28N 34°35' E 135°23'0 0.0
2014-Sep-30 13:22N 34°35' E 135°23'0 0.0
2014-Sep-30 12:31N 34°35' E 135°23'0 0.1
2014-Sep-30 11:33N 34°35' E 135°23'1211.7
2014-Sep-30 10:33N 34°35' E 135°09'  
2014-Sep-26 09:11N 33°58' E 132°43'11712.1
2014-Sep-25 23:32N 34°37' E 134°56'1313.3
2014-Sep-25 22:34N 34°36' E 135°12'6 4.5
2014-Sep-25 21:17N 34°35' E 135°19'0 0.0
2014-Sep-25 20:23N 34°35' E 135°19'0 0.0
2014-Sep-25 19:29N 34°35' E 135°19'0 0.0
2014-Sep-25 18:29N 34°35' E 135°19'0 0.1
2014-Sep-25 17:29N 34°35' E 135°19'0 0.0
2014-Sep-25 16:17N 34°35' E 135°19'0 0.0
2014-Sep-25 15:29N 34°35' E 135°19'0 0.0
2014-Sep-25 14:17N 34°35' E 135°19'0 0.0
2014-Sep-25 13:29N 34°35' E 135°19'0 0.0
2014-Sep-25 12:29N 34°35' E 135°19'0 0.0
2014-Sep-25 11:29N 34°35' E 135°19'0 0.0
2014-Sep-25 10:29N 34°35' E 135°19'0 0.0
2014-Sep-25 09:23N 34°35' E 135°19'0 0.0
2014-Sep-25 08:23N 34°35' E 135°19'0 0.0
2014-Sep-25 07:29N 34°35' E 135°19'0 0.0
2014-Sep-25 06:29N 34°35' E 135°19'0 0.0
2014-Sep-25 05:29N 34°35' E 135°19'0 0.1
2014-Sep-25 04:33N 34°35' E 135°19'6 5.7
2014-Sep-25 03:33N 34°34' E 135°26'0 0.0
2014-Sep-25 00:27N 34°34' E 135°26'4 4.2
2014-Sep-24 23:33N 34°36' E 135°21'1212.0
2014-Sep-24 22:33N 34°28' E 135°11'4 2.1
2014-Sep-24 20:31N 34°24' E 135°10'0 0.0
2014-Sep-24 19:28N 34°24' E 135°10'0 0.0
2014-Sep-24 18:25N 34°24' E 135°10'0 0.0
2014-Sep-24 17:28N 34°24' E 135°10'0 0.0
2014-Sep-24 15:31N 34°24' E 135°10'0 0.1
2014-Sep-24 14:31N 34°24' E 135°09'0 0.0
2014-Sep-24 13:31N 34°24' E 135°10'7 7.0
2014-Sep-24 12:33N 34°20' E 135°03'1211.7
2014-Sep-24 11:33N 34°08' E 135°00'  

Dump ship's entire track history